createdAt,value
2022-07-25T00:00:01.472Z,23.14
2022-07-25T00:00:37.099Z,23.02
2022-07-25T00:01:12.280Z,23.02
2022-07-25T00:01:47.422Z,23.05
2022-07-25T00:02:22.562Z,23.07
2022-07-25T00:02:57.609Z,23.12
2022-07-25T00:03:32.804Z,23.11
2022-07-25T00:04:08.354Z,22.97
2022-07-25T00:04:43.325Z,23.05
2022-07-25T00:05:18.303Z,23.05
2022-07-25T00:05:53.542Z,22.97
2022-07-25T00:06:28.869Z,22.94
2022-07-25T00:07:04.151Z,22.97
2022-07-25T00:07:39.650Z,23.07
2022-07-25T00:08:14.749Z,23.02
2022-07-25T00:08:50.161Z,23.07
2022-07-25T00:09:25.262Z,22.96
2022-07-25T00:10:00.473Z,22.96
2022-07-25T00:10:35.686Z,22.90
2022-07-25T00:11:11.232Z,22.90
2022-07-25T00:11:46.551Z,22.96
2022-07-25T00:12:21.630Z,22.92
2022-07-25T00:12:57.026Z,22.99
2022-07-25T00:13:32.120Z,22.96
2022-07-25T00:14:07.680Z,23.01
2022-07-25T00:14:42.939Z,22.87
2022-07-25T00:15:18.225Z,22.89
2022-07-25T00:15:54.006Z,22.99
2022-07-25T00:16:29.218Z,22.89
2022-07-25T00:17:04.532Z,22.90
2022-07-25T00:17:39.430Z,22.92
2022-07-25T00:18:14.940Z,22.90
2022-07-25T00:18:50.328Z,22.87
2022-07-25T00:19:25.850Z,22.93
2022-07-25T00:20:00.852Z,22.87
2022-07-25T00:20:36.241Z,22.93
2022-07-25T00:21:11.550Z,22.69
2022-07-25T00:21:46.575Z,22.86
2022-07-25T00:22:21.667Z,22.80
2022-07-25T00:22:57.054Z,22.83
2022-07-25T00:23:32.357Z,22.82
2022-07-25T00:24:08.355Z,22.72
2022-07-25T00:24:43.285Z,22.77
2022-07-25T00:25:18.569Z,22.69
2022-07-25T00:25:53.775Z,22.68
2022-07-25T00:26:29.207Z,22.64
2022-07-25T00:27:04.686Z,22.62
2022-07-25T00:27:39.885Z,22.62
2022-07-25T00:28:15.143Z,22.60
2022-07-25T00:28:50.128Z,22.65
2022-07-25T00:29:25.338Z,22.62
2022-07-25T00:30:00.527Z,22.60
2022-07-25T00:30:35.729Z,22.57
2022-07-25T00:31:11.329Z,22.59
2022-07-25T00:31:46.395Z,22.60
2022-07-25T00:32:21.649Z,22.52
2022-07-25T00:32:57.022Z,22.52
2022-07-25T00:33:32.331Z,22.49
2022-07-25T00:34:08.054Z,22.47
2022-07-25T00:34:43.134Z,22.49
2022-07-25T00:35:18.414Z,22.44
2022-07-25T00:35:53.790Z,22.38
2022-07-25T00:36:28.889Z,22.43
2022-07-25T00:37:04.273Z,22.37
2022-07-25T00:37:39.609Z,22.43
2022-07-25T00:38:14.893Z,22.47
2022-07-25T00:38:50.195Z,22.37
2022-07-25T00:39:25.299Z,22.39
2022-07-25T00:40:00.292Z,22.43
2022-07-25T00:40:35.693Z,22.44
2022-07-25T00:41:10.975Z,22.38
2022-07-25T00:41:46.047Z,22.37
2022-07-25T00:42:21.279Z,22.43
2022-07-25T00:42:56.362Z,22.38
2022-07-25T00:43:31.561Z,22.37
2022-07-25T00:44:07.009Z,22.27
2022-07-25T00:44:41.838Z,22.32
2022-07-25T00:45:16.957Z,22.38
2022-07-25T00:45:52.167Z,22.39
2022-07-25T00:46:27.078Z,22.41
2022-07-25T00:47:02.387Z,22.37
2022-07-25T00:47:37.627Z,22.29
2022-07-25T00:48:12.713Z,22.37
2022-07-25T00:48:48.311Z,22.27
2022-07-25T00:49:23.526Z,22.31
2022-07-25T00:49:58.952Z,22.23
2022-07-25T00:50:34.260Z,22.28
2022-07-25T00:51:09.674Z,22.37
2022-07-25T00:51:45.169Z,22.31
2022-07-25T00:52:20.380Z,22.29
2022-07-25T00:52:55.783Z,22.22
2022-07-25T00:53:31.226Z,22.34
2022-07-25T00:54:06.829Z,22.29
2022-07-25T00:54:41.616Z,22.25
2022-07-25T00:55:16.915Z,22.19
2022-07-25T00:55:52.243Z,22.28
2022-07-25T00:56:27.645Z,22.32
2022-07-25T00:57:02.561Z,22.23
2022-07-25T00:57:38.239Z,22.23
2022-07-25T00:58:13.471Z,22.19
2022-07-25T00:58:48.766Z,22.22
2022-07-25T00:59:23.966Z,22.27
2022-07-25T00:59:59.068Z,22.19
2022-07-25T01:00:34.557Z,22.17
2022-07-25T01:01:09.926Z,22.23
2022-07-25T01:01:45.159Z,22.19
2022-07-25T01:02:20.233Z,22.17
2022-07-25T01:02:55.472Z,22.16
2022-07-25T01:03:30.901Z,22.19
2022-07-25T01:04:06.496Z,22.25
2022-07-25T01:04:41.366Z,22.16
2022-07-25T01:05:16.575Z,22.16
2022-07-25T01:05:53.712Z,22.17
2022-07-25T01:06:27.111Z,22.19
2022-07-25T01:07:02.535Z,22.13
2022-07-25T01:07:38.054Z,22.20
2022-07-25T01:08:13.153Z,22.16
2022-07-25T01:08:48.289Z,22.14
2022-07-25T01:09:23.817Z,22.12
2022-07-25T01:09:59.140Z,22.17
2022-07-25T01:10:34.733Z,22.14
2022-07-25T01:11:10.053Z,22.12
2022-07-25T01:11:45.225Z,22.12
2022-07-25T01:12:20.320Z,22.09
2022-07-25T01:12:55.510Z,22.16
2022-07-25T01:13:30.923Z,22.02
2022-07-25T01:14:06.504Z,22.12
2022-07-25T01:14:41.361Z,22.09
2022-07-25T01:15:16.361Z,22.06
2022-07-25T01:15:51.775Z,22.04
2022-07-25T01:16:27.328Z,22.07
2022-07-25T01:17:02.374Z,22.06
2022-07-25T01:17:37.681Z,22.10
2022-07-25T01:18:12.898Z,22.02
2022-07-25T01:18:48.385Z,22.04
2022-07-25T01:19:23.887Z,22.01
2022-07-25T01:19:59.324Z,21.99
2022-07-25T01:20:34.539Z,21.99
2022-07-25T01:21:09.832Z,21.95
2022-07-25T01:21:44.938Z,22.01
2022-07-25T01:22:20.241Z,22.01
2022-07-25T01:22:55.525Z,21.90
2022-07-25T01:23:30.926Z,22.01
2022-07-25T01:24:06.329Z,21.95
2022-07-25T01:24:41.430Z,21.98
2022-07-25T01:25:16.663Z,22.06
2022-07-25T01:25:52.152Z,21.95
2022-07-25T01:26:27.266Z,21.99
2022-07-25T01:27:02.771Z,22.01
2022-07-25T01:27:38.072Z,21.95
2022-07-25T01:28:13.581Z,21.95
2022-07-25T01:28:48.923Z,21.90
2022-07-25T01:29:24.159Z,21.94
2022-07-25T01:29:59.538Z,21.98
2022-07-25T01:30:34.766Z,22.01
2022-07-25T01:31:09.818Z,21.98
2022-07-25T01:31:45.208Z,22.01
2022-07-25T01:32:20.370Z,21.95
2022-07-25T01:32:55.511Z,21.92
2022-07-25T01:33:30.956Z,21.85
2022-07-25T01:34:06.437Z,21.85
2022-07-25T01:34:41.376Z,21.92
2022-07-25T01:35:16.763Z,21.94
2022-07-25T01:35:52.039Z,21.81
2022-07-25T01:36:27.253Z,21.83
2022-07-25T01:37:02.549Z,21.90
2022-07-25T01:37:38.082Z,21.82
2022-07-25T01:38:13.296Z,21.81
2022-07-25T01:38:48.796Z,21.90
2022-07-25T01:39:24.213Z,21.83
2022-07-25T01:39:59.523Z,21.81
2022-07-25T01:40:34.832Z,21.78
2022-07-25T01:41:10.235Z,21.83
2022-07-25T01:41:45.435Z,21.76
2022-07-25T01:42:20.528Z,21.71
2022-07-25T01:42:55.943Z,21.66
2022-07-25T01:43:31.173Z,21.78
2022-07-25T01:44:06.750Z,21.72
2022-07-25T01:44:41.679Z,21.66
2022-07-25T01:45:17.178Z,21.69
2022-07-25T01:45:52.490Z,21.79
2022-07-25T01:46:27.554Z,21.67
2022-07-25T01:47:02.702Z,21.72
2022-07-25T01:47:37.928Z,21.75
2022-07-25T01:48:13.317Z,21.81
2022-07-25T01:48:48.891Z,21.76
2022-07-25T01:49:24.444Z,21.81
2022-07-25T01:49:59.964Z,21.74
2022-07-25T01:50:35.476Z,21.71
2022-07-25T01:51:10.586Z,21.66
2022-07-25T01:51:46.102Z,21.69
2022-07-25T01:52:21.296Z,21.63
2022-07-25T01:52:56.700Z,21.71
2022-07-25T01:53:32.103Z,21.60
2022-07-25T01:54:07.801Z,21.64
2022-07-25T01:54:43.504Z,21.63
2022-07-25T01:55:17.946Z,21.61
2022-07-25T01:55:52.966Z,21.64
2022-07-25T01:56:28.631Z,21.66
2022-07-25T01:57:03.897Z,21.59
2022-07-25T01:57:39.402Z,21.57
2022-07-25T01:58:14.692Z,21.66
2022-07-25T01:58:50.104Z,21.66
2022-07-25T01:59:25.825Z,21.60
2022-07-25T02:00:01.027Z,21.61
2022-07-25T02:00:35.943Z,21.64
2022-07-25T02:01:11.316Z,21.51
2022-07-25T02:01:46.623Z,21.63
2022-07-25T02:02:21.968Z,21.57
2022-07-25T02:02:57.395Z,21.53
2022-07-25T02:03:32.416Z,21.53
2022-07-25T02:04:07.984Z,21.64
2022-07-25T02:04:42.959Z,21.59
2022-07-25T02:05:18.230Z,21.56
2022-07-25T02:05:53.658Z,21.57
2022-07-25T02:06:28.860Z,21.59
2022-07-25T02:07:04.264Z,21.60
2022-07-25T02:07:39.159Z,21.63
2022-07-25T02:08:14.466Z,21.51
2022-07-25T02:08:49.971Z,21.57
2022-07-25T02:09:25.041Z,21.60
2022-07-25T02:10:00.247Z,21.57
2022-07-25T02:10:35.659Z,21.54
2022-07-25T02:11:10.577Z,21.54
2022-07-25T02:11:45.981Z,21.61
2022-07-25T02:12:21.261Z,21.57
2022-07-25T02:12:56.380Z,21.64
2022-07-25T02:13:31.903Z,21.59
2022-07-25T02:14:07.513Z,21.66
2022-07-25T02:14:42.717Z,21.53
2022-07-25T02:15:18.225Z,21.53
2022-07-25T02:15:53.421Z,21.54
2022-07-25T02:16:29.535Z,21.56
2022-07-25T02:17:04.509Z,21.46
2022-07-25T02:17:39.573Z,21.54
2022-07-25T02:18:14.908Z,21.54
2022-07-25T02:18:50.305Z,21.61
2022-07-25T02:19:25.526Z,21.50
2022-07-25T02:20:00.829Z,21.57
2022-07-25T02:20:36.222Z,21.51
2022-07-25T02:21:13.893Z,21.46
2022-07-25T02:21:46.727Z,21.51
2022-07-25T02:22:21.750Z,21.42
2022-07-25T02:22:56.959Z,21.54
2022-07-25T02:23:32.200Z,21.51
2022-07-25T02:24:07.773Z,21.56
2022-07-25T02:24:42.593Z,21.51
2022-07-25T02:25:17.695Z,21.51
2022-07-25T02:25:53.308Z,21.44
2022-07-25T02:26:28.311Z,21.48
2022-07-25T02:27:03.843Z,21.51
2022-07-25T02:27:39.161Z,21.50
2022-07-25T02:28:14.507Z,21.39
2022-07-25T02:28:49.709Z,21.34
2022-07-25T02:29:24.923Z,21.39
2022-07-25T02:30:00.394Z,21.39
2022-07-25T02:30:35.971Z,21.35
2022-07-25T02:31:11.320Z,21.30
2022-07-25T02:31:46.462Z,21.39
2022-07-25T02:32:21.616Z,21.42
2022-07-25T02:32:57.018Z,21.44
2022-07-25T02:33:32.056Z,21.34
2022-07-25T02:34:08.003Z,21.41
2022-07-25T02:34:42.765Z,21.30
2022-07-25T02:35:17.860Z,21.38
2022-07-25T02:35:52.847Z,21.36
2022-07-25T02:36:28.259Z,21.34
2022-07-25T02:37:03.865Z,21.30
2022-07-25T02:37:39.381Z,21.32
2022-07-25T02:38:14.386Z,21.26
2022-07-25T02:38:50.007Z,21.26
2022-07-25T02:39:25.206Z,21.21
2022-07-25T02:40:00.402Z,21.14
2022-07-25T02:40:35.918Z,21.30
2022-07-25T02:41:11.218Z,21.21
2022-07-25T02:41:46.418Z,21.27
2022-07-25T02:42:21.322Z,21.21
2022-07-25T02:42:56.733Z,21.21
2022-07-25T02:43:31.771Z,21.19
2022-07-25T02:44:07.147Z,21.23
2022-07-25T02:44:41.856Z,21.21
2022-07-25T02:45:16.979Z,21.16
2022-07-25T02:45:52.078Z,21.19
2022-07-25T02:46:27.503Z,21.23
2022-07-25T02:47:02.369Z,21.20
2022-07-25T02:47:37.576Z,21.21
2022-07-25T02:48:13.097Z,21.26
2022-07-25T02:48:48.762Z,21.21
2022-07-25T02:49:23.905Z,21.16
2022-07-25T02:50:06.299Z,21.20
2022-07-25T02:50:41.797Z,21.14
2022-07-25T02:51:16.900Z,21.13
2022-07-25T02:51:52.406Z,21.20
2022-07-25T02:52:27.713Z,21.19
2022-07-25T02:53:02.938Z,21.16
2022-07-25T02:53:56.569Z,21.14
2022-07-25T02:54:13.274Z,21.13
2022-07-25T02:54:48.150Z,21.13
2022-07-25T02:55:23.349Z,21.13
2022-07-25T02:55:58.835Z,21.13
2022-07-25T02:56:34.150Z,21.14
2022-07-25T02:57:09.466Z,21.09
2022-07-25T02:57:44.464Z,21.11
2022-07-25T02:58:19.584Z,21.13
2022-07-25T02:58:54.885Z,21.21
2022-07-25T02:59:32.091Z,21.06
2022-07-25T03:00:05.026Z,21.08
2022-07-25T03:00:40.740Z,21.06
2022-07-25T03:01:16.211Z,21.09
2022-07-25T03:01:51.231Z,21.20
2022-07-25T03:02:26.261Z,21.14
2022-07-25T03:03:01.578Z,21.13
2022-07-25T03:03:37.455Z,21.08
2022-07-25T03:04:12.688Z,21.17
2022-07-25T03:04:47.710Z,21.16
2022-07-25T03:05:23.018Z,21.04
2022-07-25T03:05:58.314Z,21.09
2022-07-25T03:06:33.924Z,21.06
2022-07-25T03:07:08.937Z,21.09
2022-07-25T03:07:44.526Z,21.08
2022-07-25T03:08:20.050Z,21.08
2022-07-25T03:08:55.139Z,21.11
2022-07-25T03:09:30.239Z,21.13
2022-07-25T03:10:08.767Z,21.05
2022-07-25T03:10:41.034Z,21.13
2022-07-25T03:11:16.342Z,20.93
2022-07-25T03:11:51.535Z,21.02
2022-07-25T03:12:26.749Z,21.08
2022-07-25T03:13:02.042Z,20.98
2022-07-25T03:13:37.366Z,20.99
2022-07-25T03:14:12.377Z,21.06
2022-07-25T03:14:47.579Z,21.04
2022-07-25T03:15:22.907Z,20.96
2022-07-25T03:15:58.196Z,20.95
2022-07-25T03:16:33.422Z,21.05
2022-07-25T03:17:08.674Z,21.16
2022-07-25T03:17:43.898Z,20.96
2022-07-25T03:18:18.989Z,20.98
2022-07-25T03:18:54.383Z,21.08
2022-07-25T03:19:29.968Z,21.09
2022-07-25T03:20:05.591Z,21.02
2022-07-25T03:20:40.781Z,21.04
2022-07-25T03:21:16.003Z,21.08
2022-07-25T03:21:51.313Z,21.02
2022-07-25T03:22:26.522Z,20.96
2022-07-25T03:23:01.749Z,20.98
2022-07-25T03:23:36.866Z,21.02
2022-07-25T03:24:12.312Z,20.98
2022-07-25T03:24:47.810Z,21.04
2022-07-25T03:25:23.207Z,21.02
2022-07-25T03:25:58.502Z,20.93
2022-07-25T03:26:33.834Z,21.05
2022-07-25T03:27:09.143Z,20.89
2022-07-25T03:27:44.545Z,20.90
2022-07-25T03:28:19.668Z,21.05
2022-07-25T03:28:54.949Z,20.89
2022-07-25T03:29:30.151Z,20.89
2022-07-25T03:30:05.452Z,20.98
2022-07-25T03:30:40.550Z,20.96
2022-07-25T03:31:15.707Z,20.93
2022-07-25T03:31:50.939Z,20.96
2022-07-25T03:32:26.071Z,20.86
2022-07-25T03:33:01.274Z,20.95
2022-07-25T03:33:36.362Z,20.90
2022-07-25T03:34:11.560Z,20.93
2022-07-25T03:34:46.547Z,20.87
2022-07-25T03:35:21.772Z,20.91
2022-07-25T03:35:56.959Z,20.90
2022-07-25T03:36:32.476Z,20.96
2022-07-25T03:37:07.288Z,20.83
2022-07-25T03:37:42.398Z,20.86
2022-07-25T03:38:17.590Z,20.83
2022-07-25T03:38:52.990Z,20.91
2022-07-25T03:39:28.182Z,20.86
2022-07-25T03:40:03.581Z,20.86
2022-07-25T03:40:38.914Z,20.83
2022-07-25T03:41:14.214Z,20.80
2022-07-25T03:41:49.555Z,20.93
2022-07-25T03:42:26.724Z,20.89
2022-07-25T03:43:00.447Z,20.77
2022-07-25T03:43:35.737Z,20.81
2022-07-25T03:44:10.991Z,20.89
2022-07-25T03:44:46.182Z,20.80
2022-07-25T03:45:21.388Z,20.93
2022-07-25T03:45:56.511Z,20.86
2022-07-25T03:46:31.904Z,20.84
2022-07-25T03:47:06.908Z,20.80
2022-07-25T03:47:42.006Z,20.81
2022-07-25T03:48:17.407Z,20.81
2022-07-25T03:48:53.022Z,20.76
2022-07-25T03:49:28.391Z,20.72
2022-07-25T03:50:03.588Z,20.76
2022-07-25T03:50:38.894Z,20.80
2022-07-25T03:51:14.289Z,20.80
2022-07-25T03:51:49.609Z,20.81
2022-07-25T03:52:24.731Z,20.80
2022-07-25T03:53:00.232Z,20.81
2022-07-25T03:53:35.749Z,20.72
2022-07-25T03:54:11.331Z,20.81
2022-07-25T03:54:46.671Z,20.71
2022-07-25T03:55:21.788Z,20.80
2022-07-25T03:55:57.105Z,20.86
2022-07-25T03:56:32.617Z,20.80
2022-07-25T03:57:07.934Z,20.80
2022-07-25T03:57:43.150Z,20.72
2022-07-25T03:58:18.870Z,20.68
2022-07-25T03:58:54.182Z,20.79
2022-07-25T03:59:29.481Z,20.71
2022-07-25T04:00:04.680Z,20.79
2022-07-25T04:00:40.042Z,20.72
2022-07-25T04:01:15.323Z,20.68
2022-07-25T04:01:50.884Z,20.68
2022-07-25T04:02:25.961Z,20.72
2022-07-25T04:03:01.135Z,20.72
2022-07-25T04:03:36.750Z,20.72
2022-07-25T04:04:11.771Z,20.68
2022-07-25T04:04:47.480Z,20.64
2022-07-25T04:05:22.691Z,20.72
2022-07-25T04:05:58.008Z,20.72
2022-07-25T04:06:33.411Z,20.66
2022-07-25T04:07:08.620Z,20.74
2022-07-25T04:07:44.023Z,20.65
2022-07-25T04:08:19.429Z,20.66
2022-07-25T04:08:54.529Z,20.66
2022-07-25T04:09:33.310Z,20.61
2022-07-25T04:10:05.023Z,20.59
2022-07-25T04:10:40.239Z,20.58
2022-07-25T04:11:15.250Z,20.74
2022-07-25T04:11:50.454Z,20.71
2022-07-25T04:12:25.676Z,20.62
2022-07-25T04:13:00.580Z,20.61
2022-07-25T04:13:35.674Z,20.64
2022-07-25T04:14:10.920Z,20.76
2022-07-25T04:14:46.184Z,20.61
2022-07-25T04:15:21.544Z,20.74
2022-07-25T04:15:56.772Z,20.74
2022-07-25T04:16:32.013Z,20.71
2022-07-25T04:17:07.325Z,20.72
2022-07-25T04:17:42.787Z,20.72
2022-07-25T04:18:20.887Z,20.76
2022-07-25T04:18:53.643Z,20.77
2022-07-25T04:19:28.992Z,20.69
2022-07-25T04:20:05.581Z,20.71
2022-07-25T04:20:39.163Z,20.76
2022-07-25T04:21:14.459Z,20.71
2022-07-25T04:21:49.780Z,20.74
2022-07-25T04:22:24.922Z,20.81
2022-07-25T04:23:00.133Z,20.72
2022-07-25T04:23:35.349Z,20.74
2022-07-25T04:24:10.867Z,20.80
2022-07-25T04:24:45.983Z,20.79
2022-07-25T04:25:21.584Z,20.89
2022-07-25T04:25:57.120Z,20.86
2022-07-25T04:26:32.515Z,20.84
2022-07-25T04:27:07.839Z,20.89
2022-07-25T04:27:43.144Z,20.79
2022-07-25T04:28:18.575Z,20.81
2022-07-25T04:28:53.795Z,20.83
2022-07-25T04:29:28.898Z,20.89
2022-07-25T04:30:04.098Z,20.87
2022-07-25T04:30:39.391Z,20.91
2022-07-25T04:31:14.333Z,20.83
2022-07-25T04:31:49.249Z,20.86
2022-07-25T04:32:24.375Z,20.86
2022-07-25T04:32:59.613Z,20.91
2022-07-25T04:33:35.325Z,20.89
2022-07-25T04:34:10.626Z,20.87
2022-07-25T04:34:45.753Z,20.86
2022-07-25T04:35:21.151Z,20.91
2022-07-25T04:35:56.481Z,20.91
2022-07-25T04:36:32.192Z,20.93
2022-07-25T04:37:07.601Z,20.89
2022-07-25T04:37:42.811Z,20.90
2022-07-25T04:38:17.950Z,20.96
2022-07-25T04:38:53.243Z,20.95
2022-07-25T04:39:28.657Z,20.93
2022-07-25T04:40:03.965Z,20.89
2022-07-25T04:40:39.373Z,20.91
2022-07-25T04:41:14.464Z,20.93
2022-07-25T04:41:49.677Z,20.93
2022-07-25T04:42:24.919Z,20.98
2022-07-25T04:43:00.299Z,20.93
2022-07-25T04:43:35.601Z,20.93
2022-07-25T04:44:10.742Z,20.95
2022-07-25T04:44:45.950Z,20.95
2022-07-25T04:45:21.097Z,20.95
2022-07-25T04:45:56.471Z,20.91
2022-07-25T04:46:31.664Z,21.02
2022-07-25T04:47:06.873Z,20.98
2022-07-25T04:47:41.991Z,20.96
2022-07-25T04:48:17.290Z,20.99
2022-07-25T04:48:52.541Z,20.95
2022-07-25T04:49:27.808Z,21.09
2022-07-25T04:50:02.998Z,21.02
2022-07-25T04:50:38.236Z,21.04
2022-07-25T04:51:13.420Z,21.01
2022-07-25T04:51:48.635Z,20.98
2022-07-25T04:52:23.552Z,20.98
2022-07-25T04:52:58.836Z,21.08
2022-07-25T04:53:34.143Z,21.11
2022-07-25T04:54:09.935Z,21.11
2022-07-25T04:54:44.946Z,21.09
2022-07-25T04:55:20.341Z,21.14
2022-07-25T04:55:55.431Z,21.13
2022-07-25T04:56:30.919Z,21.20
2022-07-25T04:57:06.749Z,21.16
2022-07-25T04:57:42.132Z,21.16
2022-07-25T04:58:17.439Z,21.21
2022-07-25T04:58:52.557Z,21.17
2022-07-25T04:59:27.942Z,21.20
2022-07-25T05:00:03.167Z,21.21
2022-07-25T05:00:38.464Z,21.20
2022-07-25T05:01:13.337Z,21.23
2022-07-25T05:01:48.652Z,21.19
2022-07-25T05:02:24.010Z,21.29
2022-07-25T05:02:59.038Z,21.21
2022-07-25T05:03:34.249Z,21.23
2022-07-25T05:04:09.627Z,21.30
2022-07-25T05:04:45.543Z,21.24
2022-07-25T05:05:21.538Z,21.34
2022-07-25T05:05:55.482Z,21.34
2022-07-25T05:06:30.777Z,21.35
2022-07-25T05:07:06.101Z,21.36
2022-07-25T05:07:41.432Z,21.32
2022-07-25T05:08:16.746Z,21.30
2022-07-25T05:08:52.046Z,21.27
2022-07-25T05:09:27.134Z,21.27
2022-07-25T05:10:02.557Z,21.36
2022-07-25T05:10:37.674Z,21.38
2022-07-25T05:11:13.175Z,21.42
2022-07-25T05:11:51.612Z,21.39
2022-07-25T05:12:23.262Z,21.45
2022-07-25T05:12:58.366Z,21.41
2022-07-25T05:13:33.569Z,21.46
2022-07-25T05:14:09.134Z,21.36
2022-07-25T05:14:44.251Z,21.42
2022-07-25T05:15:19.240Z,21.36
2022-07-25T05:15:54.291Z,21.39
2022-07-25T05:16:29.302Z,21.44
2022-07-25T05:17:04.681Z,21.45
2022-07-25T05:17:39.801Z,21.48
2022-07-25T05:18:15.006Z,21.38
2022-07-25T05:18:50.224Z,21.42
2022-07-25T05:19:25.203Z,21.46
2022-07-25T05:20:00.398Z,21.42
2022-07-25T05:20:35.703Z,21.44
2022-07-25T05:21:11.037Z,21.36
2022-07-25T05:21:46.350Z,21.39
2022-07-25T05:22:25.129Z,21.44
2022-07-25T05:22:56.666Z,21.50
2022-07-25T05:23:32.067Z,21.41
2022-07-25T05:24:07.401Z,21.45
2022-07-25T05:24:42.491Z,21.48
2022-07-25T05:25:17.899Z,21.56
2022-07-25T05:25:53.322Z,21.50
2022-07-25T05:26:28.626Z,21.46
2022-07-25T05:27:03.629Z,21.56
2022-07-25T05:27:38.925Z,21.45
2022-07-25T05:28:14.124Z,21.50
2022-07-25T05:28:49.234Z,21.48
2022-07-25T05:29:24.322Z,21.54
2022-07-25T05:29:59.337Z,21.45
2022-07-25T05:30:39.311Z,21.56
2022-07-25T05:31:10.336Z,21.57
2022-07-25T05:31:45.529Z,21.48
2022-07-25T05:32:20.843Z,21.44
2022-07-25T05:32:55.961Z,21.50
2022-07-25T05:33:30.849Z,21.53
2022-07-25T05:34:06.131Z,21.59
2022-07-25T05:34:41.071Z,21.54
2022-07-25T05:35:16.351Z,21.53
2022-07-25T05:35:51.565Z,21.60
2022-07-25T05:36:26.586Z,21.51
2022-07-25T05:37:01.615Z,21.60
2022-07-25T05:37:36.908Z,21.60
2022-07-25T05:38:12.201Z,21.67
2022-07-25T05:38:47.412Z,21.56
2022-07-25T05:39:22.407Z,21.61
2022-07-25T05:39:57.816Z,21.64
2022-07-25T05:40:32.825Z,21.61
2022-07-25T05:41:08.142Z,21.64
2022-07-25T05:41:43.348Z,21.63
2022-07-25T05:42:18.692Z,21.66
2022-07-25T05:42:55.449Z,21.63
2022-07-25T05:43:29.381Z,21.66
2022-07-25T05:44:05.178Z,21.72
2022-07-25T05:44:40.595Z,21.75
2022-07-25T05:45:16.194Z,21.75
2022-07-25T05:45:51.618Z,21.79
2022-07-25T05:46:27.051Z,21.76
2022-07-25T05:47:02.684Z,21.82
2022-07-25T05:47:38.035Z,21.83
2022-07-25T05:48:13.449Z,21.82
2022-07-25T05:48:48.711Z,21.94
2022-07-25T05:49:23.763Z,21.94
2022-07-25T05:49:58.769Z,21.99
2022-07-25T05:50:33.962Z,21.98
2022-07-25T05:51:09.086Z,21.95
2022-07-25T05:51:44.294Z,22.02
2022-07-25T05:52:19.896Z,22.07
2022-07-25T05:52:55.196Z,21.99
2022-07-25T05:53:30.390Z,22.09
2022-07-25T05:54:05.820Z,22.10
2022-07-25T05:54:40.716Z,22.17
2022-07-25T05:55:16.016Z,22.20
2022-07-25T05:55:51.120Z,22.29
2022-07-25T05:56:26.219Z,22.19
2022-07-25T05:57:01.535Z,22.27
2022-07-25T05:57:36.728Z,22.31
2022-07-25T05:58:12.013Z,22.34
2022-07-25T05:58:47.317Z,22.34
2022-07-25T05:59:22.934Z,22.37
2022-07-25T05:59:58.144Z,22.32
2022-07-25T06:00:33.228Z,22.39
2022-07-25T06:01:08.443Z,22.38
2022-07-25T06:01:43.607Z,22.44
2022-07-25T06:02:18.698Z,22.44
2022-07-25T06:02:53.819Z,22.64
2022-07-25T06:03:28.970Z,22.57
2022-07-25T06:04:04.316Z,22.59
2022-07-25T06:04:39.017Z,22.71
2022-07-25T06:05:14.223Z,22.71
2022-07-25T06:05:49.224Z,22.68
2022-07-25T06:06:24.536Z,22.72
2022-07-25T06:06:59.837Z,22.74
2022-07-25T06:07:35.249Z,22.86
2022-07-25T06:08:10.559Z,22.83
2022-07-25T06:08:45.560Z,22.94
2022-07-25T06:09:20.876Z,22.96
2022-07-25T06:09:55.973Z,22.99
2022-07-25T06:10:31.069Z,23.05
2022-07-25T06:11:06.263Z,23.08
2022-07-25T06:11:54.463Z,23.20
2022-07-25T06:12:17.376Z,23.11
2022-07-25T06:12:52.663Z,23.20
2022-07-25T06:13:28.132Z,23.24
2022-07-25T06:14:03.264Z,23.29
2022-07-25T06:14:38.466Z,23.23
2022-07-25T06:15:22.165Z,23.43
2022-07-25T06:15:49.679Z,23.40
2022-07-25T06:16:24.904Z,23.42
2022-07-25T06:17:00.116Z,23.49
2022-07-25T06:17:35.434Z,23.52
2022-07-25T06:18:10.741Z,23.43
2022-07-25T06:18:45.834Z,23.58
2022-07-25T06:19:20.719Z,23.61
2022-07-25T06:19:55.919Z,23.61
2022-07-25T06:20:31.128Z,23.68
2022-07-25T06:21:06.528Z,23.64
2022-07-25T06:21:41.724Z,23.75
2022-07-25T06:22:16.836Z,23.71
2022-07-25T06:22:52.242Z,23.80
2022-07-25T06:23:27.986Z,23.86
2022-07-25T06:24:03.298Z,23.92
2022-07-25T06:24:38.692Z,23.92
2022-07-25T06:25:14.347Z,24.10
2022-07-25T06:25:50.362Z,24.05
2022-07-25T06:26:24.758Z,24.20
2022-07-25T06:26:59.795Z,24.14
2022-07-25T06:27:34.913Z,24.20
2022-07-25T06:28:10.691Z,24.17
2022-07-25T06:28:45.724Z,24.16
2022-07-25T06:29:21.336Z,24.19
2022-07-25T06:29:56.549Z,24.22
2022-07-25T06:30:31.748Z,24.23
2022-07-25T06:31:07.068Z,24.31
2022-07-25T06:31:42.215Z,24.32
2022-07-25T06:32:17.365Z,24.38
2022-07-25T06:32:52.568Z,24.41
2022-07-25T06:33:27.567Z,24.38
2022-07-25T06:34:03.463Z,24.49
2022-07-25T06:34:38.471Z,24.38
2022-07-25T06:35:13.691Z,24.53
2022-07-25T06:35:48.702Z,24.59
2022-07-25T06:36:24.099Z,24.53
2022-07-25T06:36:59.304Z,24.56
2022-07-25T06:37:34.937Z,24.49
2022-07-25T06:38:10.664Z,24.54
2022-07-25T06:38:45.848Z,24.63
2022-07-25T06:39:21.064Z,24.76
2022-07-25T06:39:56.656Z,24.61
2022-07-25T06:40:31.970Z,24.75
2022-07-25T06:41:07.182Z,24.92
2022-07-25T06:41:42.578Z,24.88
2022-07-25T06:42:17.697Z,25.00
2022-07-25T06:42:52.788Z,24.97
2022-07-25T06:43:28.128Z,25.12
2022-07-25T06:44:03.733Z,25.19
2022-07-25T06:44:38.826Z,25.27
2022-07-25T06:45:14.228Z,25.34
2022-07-25T06:45:49.521Z,25.46
2022-07-25T06:46:24.737Z,25.43
2022-07-25T06:47:00.285Z,25.50
2022-07-25T06:47:36.131Z,25.57
2022-07-25T06:48:10.750Z,25.67
2022-07-25T06:48:46.204Z,25.74
2022-07-25T06:49:21.754Z,25.77
2022-07-25T06:49:56.968Z,25.86
2022-07-25T06:50:32.267Z,25.80
2022-07-25T06:51:07.678Z,25.94
2022-07-25T06:51:42.772Z,26.01
2022-07-25T06:52:18.205Z,26.05
2022-07-25T06:52:53.196Z,26.15
2022-07-25T06:53:28.526Z,26.25
2022-07-25T06:54:04.055Z,26.22
2022-07-25T06:54:38.968Z,26.27
2022-07-25T06:55:14.183Z,26.31
2022-07-25T06:55:49.665Z,26.28
2022-07-25T06:56:24.771Z,26.39
2022-07-25T06:57:00.088Z,26.47
2022-07-25T06:57:35.801Z,26.54
2022-07-25T06:58:11.148Z,26.57
2022-07-25T06:58:46.541Z,26.64
2022-07-25T06:59:21.740Z,26.67
2022-07-25T06:59:56.960Z,26.73
2022-07-25T07:00:32.409Z,26.77
2022-07-25T07:01:07.525Z,26.91
2022-07-25T07:01:42.710Z,26.94
2022-07-25T07:02:18.237Z,26.92
2022-07-25T07:02:53.772Z,27.01
2022-07-25T07:03:28.748Z,27.09
2022-07-25T07:04:04.436Z,27.16
2022-07-25T07:04:39.459Z,27.13
2022-07-25T07:05:14.772Z,27.19
2022-07-25T07:05:49.778Z,27.16
2022-07-25T07:06:25.099Z,27.17
2022-07-25T07:07:00.273Z,27.19
2022-07-25T07:07:35.590Z,27.29
2022-07-25T07:08:10.887Z,27.32
2022-07-25T07:08:45.897Z,27.39
2022-07-25T07:09:21.177Z,27.48
2022-07-25T07:09:56.476Z,27.41
2022-07-25T07:10:31.720Z,27.51
2022-07-25T07:11:07.229Z,27.48
2022-07-25T07:11:42.438Z,27.51
2022-07-25T07:12:17.944Z,27.48
2022-07-25T07:12:52.839Z,27.48
2022-07-25T07:13:28.040Z,27.42
2022-07-25T07:14:03.933Z,27.47
2022-07-25T07:14:38.660Z,27.42
2022-07-25T07:15:13.968Z,27.38
2022-07-25T07:15:49.147Z,27.36
2022-07-25T07:16:24.292Z,27.29
2022-07-25T07:16:59.567Z,27.23
2022-07-25T07:17:34.926Z,27.26
2022-07-25T07:18:10.147Z,27.21
2022-07-25T07:18:49.101Z,27.16
2022-07-25T07:19:20.754Z,27.10
2022-07-25T07:19:55.957Z,27.14
2022-07-25T07:20:31.161Z,27.02
2022-07-25T07:21:06.289Z,26.96
2022-07-25T07:21:41.777Z,26.92
2022-07-25T07:22:16.914Z,26.95
2022-07-25T07:22:52.035Z,26.92
2022-07-25T07:23:27.033Z,27.01
2022-07-25T07:24:02.356Z,27.04
2022-07-25T07:24:42.843Z,26.94
2022-07-25T07:25:12.959Z,26.98
2022-07-25T07:25:48.309Z,26.92
2022-07-25T07:26:23.640Z,26.99
2022-07-25T07:26:58.852Z,26.95
2022-07-25T07:27:34.152Z,26.95
2022-07-25T07:28:09.169Z,27.04
2022-07-25T07:28:44.275Z,26.98
2022-07-25T07:29:19.490Z,27.05
2022-07-25T07:29:54.616Z,26.99
2022-07-25T07:30:58.334Z,27.04
2022-07-25T07:31:20.015Z,27.01
2022-07-25T07:31:40.286Z,26.96
2022-07-25T07:32:15.491Z,27.16
2022-07-25T07:32:50.767Z,27.02
2022-07-25T07:33:25.973Z,27.04
2022-07-25T07:34:01.414Z,27.14